Station Historical Data
Daily Summary for September 15, 2017 Units:  English    Metric   Both
« Previous Day
Next Day »
Daily Weekly Monthly Yearly Custom
  High: Low: Average:
Temperature: 82.7 °F 61.4 °F 70.3 °F
Dew Point: 68.9 °F 59.4 °F 64 °F
Humidity: 94% 56% 82%
Wind Speed: 5.0mph 1.0mph 2.5mph
Wind Gust: 5.0mph - -
Wind- - South
Pressure: 30.12 in 30.03 in -
Precipitation: 0.00 in    
Historical Graphs
 
 
Tabular Data for September 15, 2017
Time Temperature Dew Point Pressure Wind Wind Speed Wind Gust Humidity Rainfall Rate (Hourly) Conditions
00:00 64.3 °F 62.0 °F 30.03 in South 2.0 mph 2.0 mph 92% 0.00 in CLR
00:05 64.2 °F 61.8 °F 30.03 in South 2.0 mph 2.0 mph 92% 0.00 in CLR
00:10 64.1 °F 61.7 °F 30.03 in South 2.0 mph 2.0 mph 92% 0.00 in CLR
00:15 63.9 °F 61.5 °F 30.03 in South 2.0 mph 2.0 mph 92% 0.00 in CLR
00:20 63.8 °F 61.4 °F 30.03 in South 2.0 mph 2.0 mph 92% 0.00 in CLR
00:25 63.7 °F 61.3 °F 30.03 in South 2.0 mph 2.0 mph 92% 0.00 in CLR
00:30 63.7 °F 61.3 °F 30.04 in South 2.0 mph 2.0 mph 92% 0.00 in CLR
00:35 63.6 °F 61.2 °F 30.04 in South 2.0 mph 2.0 mph 92% 0.00 in CLR
00:40 63.6 °F 61.2 °F 30.04 in South 2.0 mph 2.0 mph 92% 0.00 in CLR
00:45 63.5 °F 61.1 °F 30.04 in South 2.0 mph 2.0 mph 92% 0.00 in CLR
00:50 63.5 °F 61.1 °F 30.04 in South 2.0 mph 2.0 mph 92% 0.00 in CLR
00:55 63.5 °F 61.1 °F 30.04 in South 2.0 mph 2.0 mph 92% 0.00 in CLR
01:00 63.4 °F 61.0 °F 30.04 in South 2.0 mph 2.0 mph 92% 0.00 in CLR
01:05 63.4 °F 61.0 °F 30.04 in South 2.0 mph 2.0 mph 92% 0.00 in CLR
01:10 63.6 °F 61.5 °F 30.04 in South 2.0 mph 2.0 mph 93% 0.00 in CLR
01:15 63.6 °F 61.5 °F 30.04 in South 2.0 mph 2.0 mph 93% 0.00 in CLR
01:20 63.4 °F 61.0 °F 30.04 in South 2.0 mph 2.0 mph 92% 0.00 in CLR
01:25 63.3 °F 60.9 °F 30.04 in South 2.0 mph 2.0 mph 92% 0.00 in CLR
01:30 63.2 °F 60.8 °F 30.04 in South 2.0 mph 2.0 mph 92% 0.00 in CLR
01:40 63.0 °F 60.6 °F 30.04 in South 2.0 mph 2.0 mph 92% 0.00 in CLR
01:45 63.0 °F 60.6 °F 30.04 in South 2.0 mph 2.0 mph 92% 0.00 in CLR
01:50 63.0 °F 60.6 °F 30.04 in South 2.0 mph 2.0 mph 92% 0.00 in CLR
01:55 62.8 °F 60.5 °F 30.04 in South 2.0 mph 2.0 mph 92% 0.00 in CLR
02:00 62.8 °F 60.4 °F 30.04 in South 2.0 mph 2.0 mph 92% 0.00 in CLR
02:10 62.8 °F 60.7 °F 30.04 in South 2.0 mph 2.0 mph 93% 0.00 in CLR
02:15 62.9 °F 60.8 °F 30.04 in South 2.0 mph 2.0 mph 93% 0.00 in CLR
02:20 62.8 °F 60.7 °F 30.04 in South 2.0 mph 2.0 mph 93% 0.00 in CLR
02:25 62.7 °F 60.7 °F 30.04 in South 2.0 mph 2.0 mph 93% 0.00 in CLR
02:30 62.7 °F 60.6 °F 30.04 in South 2.0 mph 2.0 mph 93% 0.00 in CLR
02:35 62.6 °F 60.5 °F 30.04 in South 2.0 mph 2.0 mph 93% 0.00 in CLR
02:40 62.5 °F 60.4 °F 30.04 in South 2.0 mph 2.0 mph 93% 0.00 in CLR
02:45 62.5 °F 60.4 °F 30.04 in South 2.0 mph 2.0 mph 93% 0.00 in CLR
02:50 62.5 °F 60.4 °F 30.04 in South 2.0 mph 2.0 mph 93% 0.00 in CLR
02:55 62.5 °F 60.4 °F 30.04 in South 2.0 mph 2.0 mph 93% 0.00 in CLR
03:00 62.5 °F 60.4 °F 30.04 in South 2.0 mph 2.0 mph 93% 0.00 in CLR
03:05 62.5 °F 60.4 °F 30.04 in South 2.0 mph 2.0 mph 93% 0.00 in CLR
03:10 62.5 °F 60.4 °F 30.04 in South 2.0 mph 2.0 mph 93% 0.00 in CLR
03:15 62.4 °F 60.3 °F 30.04 in South 2.0 mph 2.0 mph 93% 0.00 in CLR
03:20 62.4 °F 60.3 °F 30.04 in South 2.0 mph 2.0 mph 93% 0.00 in CLR
03:25 62.5 °F 60.4 °F 30.04 in South 2.0 mph 2.0 mph 93% 0.00 in CLR
03:30 62.4 °F 60.3 °F 30.04 in South 2.0 mph 2.0 mph 93% 0.00 in CLR
03:35 62.4 °F 60.4 °F 30.04 in South 2.0 mph 2.0 mph 93% 0.00 in CLR
03:40 62.4 °F 60.3 °F 30.04 in South 2.0 mph 2.0 mph 93% 0.00 in CLR
03:45 62.4 °F 60.3 °F 30.04 in South 2.0 mph 2.0 mph 93% 0.00 in CLR
03:50 62.3 °F 60.2 °F 30.03 in South 2.0 mph 2.0 mph 93% 0.00 in CLR
03:55 62.2 °F 60.2 °F 30.04 in South 2.0 mph 2.0 mph 93% 0.00 in CLR
04:00 62.2 °F 60.2 °F 30.04 in South 2.0 mph 2.0 mph 93% 0.00 in CLR
04:10 62.0 °F 60.0 °F 30.04 in South 2.0 mph 2.0 mph 93% 0.00 in CLR
04:15 61.9 °F 59.9 °F 30.04 in South 2.0 mph 2.0 mph 93% 0.00 in CLR
04:20 61.8 °F 59.8 °F 30.04 in South 2.0 mph 2.0 mph 93% 0.00 in CLR
04:25 61.8 °F 59.7 °F 30.04 in South 2.0 mph 2.0 mph 93% 0.00 in CLR
04:30 61.7 °F 59.7 °F 30.04 in South 2.0 mph 2.0 mph 93% 0.00 in CLR
04:35 61.6 °F 59.6 °F 30.04 in South 2.0 mph 2.0 mph 93% 0.00 in CLR
04:40 61.6 °F 59.6 °F 30.04 in South 2.0 mph 2.0 mph 93% 0.00 in CLR
04:45 61.5 °F 59.5 °F 30.04 in South 2.0 mph 2.0 mph 93% 0.00 in CLR
04:50 61.4 °F 59.4 °F 30.04 in South 2.0 mph 2.0 mph 93% 0.00 in CLR
04:55 61.4 °F 59.4 °F 30.04 in South 2.0 mph 2.0 mph 93% 0.00 in CLR
05:00 61.5 °F 59.5 °F 30.04 in South 2.0 mph 2.0 mph 93% 0.00 in CLR
05:10 61.6 °F 59.6 °F 30.05 in South 2.0 mph 2.0 mph 93% 0.00 in CLR
05:15 61.7 °F 59.7 °F 30.05 in South 2.0 mph 2.0 mph 93% 0.00 in SCT
05:20 61.7 °F 59.6 °F 30.05 in South 2.0 mph 2.0 mph 93% 0.00 in SCT
05:25 61.6 °F 59.6 °F 30.05 in South 2.0 mph 2.0 mph 93% 0.00 in SCT
05:30 61.7 °F 59.6 °F 30.05 in South 2.0 mph 2.0 mph 93% 0.00 in SCT
05:35 61.7 °F 59.7 °F 30.05 in South 2.0 mph 2.0 mph 93% 0.00 in SCT
05:40 61.8 °F 59.8 °F 30.05 in South 2.0 mph 2.0 mph 93% 0.00 in SCT
05:45 61.8 °F 59.8 °F 30.06 in South 2.0 mph 2.0 mph 93% 0.00 in SCT
05:50 61.8 °F 59.8 °F 30.06 in South 2.0 mph 2.0 mph 93% 0.00 in SCT
05:55 61.8 °F 59.8 °F 30.06 in South 2.0 mph 2.0 mph 93% 0.00 in SCT
06:00 61.9 °F 59.9 °F 30.06 in South 2.0 mph 2.0 mph 93% 0.00 in SCT
06:10 61.9 °F 59.9 °F 30.06 in South 2.0 mph 2.0 mph 93% 0.00 in SCT
06:15 61.9 °F 59.9 °F 30.07 in South 2.0 mph 2.0 mph 93% 0.00 in SCT
06:20 61.9 °F 59.9 °F 30.07 in South 2.0 mph 2.0 mph 93% 0.00 in SCT
06:25 62.0 °F 59.9 °F 30.07 in South 2.0 mph 2.0 mph 93% 0.00 in SCT
06:30 62.0 °F 60.0 °F 30.08 in South 2.0 mph 2.0 mph 93% 0.00 in SCT
06:35 62.0 °F 59.9 °F 30.08 in South 2.0 mph 2.0 mph 93% 0.00 in SCT
06:40 61.9 °F 59.9 °F 30.08 in South 2.0 mph 2.0 mph 93% 0.00 in SCT
06:45 61.9 °F 59.8 °F 30.08 in South 2.0 mph 2.0 mph 93% 0.00 in SCT
06:50 61.8 °F 59.8 °F 30.09 in South 2.0 mph 2.0 mph 93% 0.00 in SCT
06:55 61.8 °F 59.8 °F 30.09 in South 2.0 mph 2.0 mph 93% 0.00 in SCT
07:00 62.0 °F 60.0 °F 30.09 in South 2.0 mph 2.0 mph 93% 0.00 in SCT
07:10 62.0 °F 59.9 °F 30.09 in South 2.0 mph 2.0 mph 93% 0.00 in SCT
07:15 61.9 °F 59.9 °F 30.09 in South 2.0 mph 2.0 mph 93% 0.00 in BKN
07:20 61.8 °F 59.8 °F 30.09 in South 2.0 mph 2.0 mph 93% 0.00 in BKN
07:25 61.8 °F 59.8 °F 30.09 in South 2.0 mph 2.0 mph 93% 0.00 in BKN
07:30 61.7 °F 59.7 °F 30.10 in South 2.0 mph 2.0 mph 93% 0.00 in BKN
07:40 61.6 °F 59.6 °F 30.10 in South 2.0 mph 2.0 mph 93% 0.00 in BKN
07:45 61.7 °F 59.7 °F 30.10 in South 2.0 mph 2.0 mph 93% 0.00 in BKN
07:50 61.8 °F 59.7 °F 30.10 in South 2.0 mph 2.0 mph 93% 0.00 in BKN
07:55 62.1 °F 60.3 °F 30.10 in South 2.0 mph 2.0 mph 94% 0.00 in BKN
08:00 62.2 °F 60.5 °F 30.10 in South 2.0 mph 2.0 mph 94% 0.00 in BKN
08:05 62.1 °F 60.4 °F 30.11 in South 2.0 mph 2.0 mph 94% 0.00 in BKN
08:10 62.2 °F 60.5 °F 30.11 in South 2.0 mph 2.0 mph 94% 0.00 in BKN
08:15 62.3 °F 60.6 °F 30.11 in South 2.0 mph 2.0 mph 94% 0.00 in SCT
08:20 62.6 °F 60.8 °F 30.10 in South 2.0 mph 2.0 mph 94% 0.00 in SCT
08:25 62.8 °F 61.1 °F 30.10 in South 2.0 mph 2.0 mph 94% 0.00 in SCT
08:30 63.0 °F 61.2 °F 30.11 in South 2.0 mph 2.0 mph 94% 0.00 in SCT
08:35 63.3 °F 61.5 °F 30.11 in South 2.0 mph 2.0 mph 94% 0.00 in SCT
08:40 63.5 °F 61.7 °F 30.11 in South 2.0 mph 2.0 mph 94% 0.00 in SCT
08:45 63.8 °F 62.1 °F 30.11 in South 2.0 mph 2.0 mph 94% 0.00 in SCT
08:50 64.2 °F 62.5 °F 30.11 in South 2.0 mph 2.0 mph 94% 0.00 in SCT
08:55 64.6 °F 62.8 °F 30.11 in South 2.0 mph 2.0 mph 94% 0.00 in SCT
09:00 64.9 °F 63.2 °F 30.11 in South 2.0 mph 2.0 mph 94% 0.00 in SCT
09:05 65.3 °F 63.5 °F 30.11 in South 2.0 mph 2.0 mph 94% 0.00 in SCT
09:10 65.7 °F 63.9 °F 30.11 in South 2.0 mph 2.0 mph 94% 0.00 in SCT
09:15 66.1 °F 64.3 °F 30.11 in South 2.0 mph 2.0 mph 94% 0.00 in SCT
09:20 66.5 °F 64.7 °F 30.11 in South 2.0 mph 2.0 mph 94% 0.00 in SCT
09:25 66.8 °F 65.0 °F 30.11 in South 2.0 mph 2.0 mph 94% 0.00 in SCT
09:30 67.3 °F 65.5 °F 30.11 in South 2.0 mph 2.0 mph 94% 0.00 in SCT
09:35 67.7 °F 66.0 °F 30.11 in South 2.0 mph 2.0 mph 94% 0.00 in SCT
09:40 68.2 °F 66.1 °F 30.12 in South 2.0 mph 2.0 mph 93% 0.00 in SCT
09:45 69.0 °F 66.5 °F 30.12 in South 2.0 mph 2.0 mph 92% 0.00 in SCT
09:50 69.7 °F 66.6 °F 30.12 in South 2.0 mph 2.0 mph 90% 0.00 in SCT
09:55 70.3 °F 66.9 °F 30.12 in South 2.0 mph 2.0 mph 89% 0.00 in SCT
10:00 70.9 °F 66.8 °F 30.12 in South 2.0 mph 2.0 mph 87% 0.00 in SCT
10:10 72.0 °F 66.9 °F 30.12 in South 2.0 mph 2.0 mph 84% 0.00 in SCT
10:15 72.6 °F 66.8 °F 30.12 in SE 1.0 mph 2.0 mph 82% 0.00 in BKN
10:20 73.0 °F 66.8 °F 30.12 in East 1.0 mph 1.0 mph 81% 0.00 in BKN
10:25 73.4 °F 67.6 °F 30.12 in East 1.0 mph 1.0 mph 82% 0.00 in BKN
10:30 73.7 °F 67.1 °F 30.12 in East 1.0 mph 1.0 mph 80% 0.00 in BKN
10:40 74.5 °F 67.2 °F 30.12 in East 1.0 mph 1.0 mph 78% 0.00 in BKN
10:45 75.3 °F 67.6 °F 30.12 in East 1.0 mph 1.0 mph 77% 0.00 in BKN
10:50 76.0 °F 67.9 °F 30.12 in East 1.0 mph 1.0 mph 76% 0.00 in BKN
10:55 76.7 °F 68.5 °F 30.12 in East 1.0 mph 1.0 mph 76% 0.00 in BKN
11:00 77.5 °F 68.5 °F 30.12 in East 1.0 mph 1.0 mph 74% 0.00 in BKN
11:05 78.0 °F 67.9 °F 30.12 in East 1.0 mph 1.0 mph 71% 0.00 in BKN
11:10 78.0 °F 67.4 °F 30.12 in East 1.0 mph 1.0 mph 70% 0.00 in BKN
11:15 77.9 °F 66.9 °F 30.11 in SSE 3.0 mph 3.0 mph 69% 0.00 in SCT
11:20 77.9 °F 67.7 °F 30.11 in South 3.0 mph 3.0 mph 71% 0.00 in SCT
11:25 77.7 °F 66.8 °F 30.11 in South 3.0 mph 3.0 mph 69% 0.00 in SCT
11:30 77.2 °F 67.1 °F 30.11 in South 3.0 mph 3.0 mph 71% 0.00 in SCT
11:35 77.1 °F 67.0 °F 30.11 in South 3.0 mph 3.0 mph 71% 0.00 in SCT
11:40 76.9 °F 67.6 °F 30.11 in South 3.0 mph 3.0 mph 73% 0.00 in SCT
11:45 77.0 °F 68.5 °F 30.11 in South 3.0 mph 3.0 mph 75% 0.00 in SCT
11:50 77.7 °F 68.8 °F 30.11 in South 3.0 mph 3.0 mph 74% 0.00 in SCT
11:55 78.6 °F 67.6 °F 30.11 in South 3.0 mph 3.0 mph 69% 0.00 in SCT
12:00 79.0 °F 68.0 °F 30.11 in South 3.0 mph 3.0 mph 69% 0.00 in SCT
12:05 79.8 °F 67.9 °F 30.10 in South 3.0 mph 3.0 mph 67% 0.00 in SCT
12:10 80.8 °F 68.9 °F 30.11 in South 3.0 mph 3.0 mph 67% 0.00 in SCT
12:15 81.0 °F 67.2 °F 30.11 in SW 3.0 mph 3.0 mph 63% 0.00 in SCT
12:20 80.5 °F 67.2 °F 30.11 in West 3.0 mph 3.0 mph 64% 0.00 in SCT
12:25 79.6 °F 67.2 °F 30.11 in West 3.0 mph 3.0 mph 66% 0.00 in SCT
12:30 79.0 °F 67.9 °F 30.11 in West 3.0 mph 3.0 mph 69% 0.00 in SCT
12:40 78.5 °F 68.8 °F 30.10 in West 3.0 mph 3.0 mph 72% 0.00 in SCT
12:45 78.5 °F 67.1 °F 30.10 in West 3.0 mph 3.0 mph 68% 0.00 in SCT
12:50 78.6 °F 66.3 °F 30.10 in West 3.0 mph 3.0 mph 66% 0.00 in SCT
12:55 78.8 °F 66.9 °F 30.10 in West 3.0 mph 3.0 mph 67% 0.00 in SCT
13:00 79.1 °F 67.6 °F 30.10 in West 3.0 mph 3.0 mph 68% 0.00 in SCT
13:05 79.2 °F 67.3 °F 30.10 in West 3.0 mph 3.0 mph 67% 0.00 in SCT
13:10 79.4 °F 68.3 °F 30.10 in West 3.0 mph 3.0 mph 69% 0.00 in SCT
13:15 79.2 °F 68.1 °F 30.10 in WNW 2.0 mph 3.0 mph 69% 0.00 in BKN
13:20 79.3 °F 68.3 °F 30.10 in NW 2.0 mph 2.0 mph 69% 0.00 in BKN
13:25 79.9 °F 67.5 °F 30.10 in NW 2.0 mph 2.0 mph 66% 0.00 in BKN
13:30 80.9 °F 66.2 °F 30.10 in NW 2.0 mph 2.0 mph 61% 0.00 in BKN
13:35 81.4 °F 67.1 °F 30.10 in NW 2.0 mph 2.0 mph 62% 0.00 in BKN
13:40 81.9 °F 68.1 °F 30.10 in NW 2.0 mph 2.0 mph 63% 0.00 in BKN
13:50 82.7 °F 67.4 °F 30.10 in NW 2.0 mph 2.0 mph 60% 0.00 in BKN
13:55 82.2 °F 67.4 °F 30.09 in NW 2.0 mph 2.0 mph 61% 0.00 in BKN
14:00 81.8 °F 67.0 °F 30.09 in NW 2.0 mph 2.0 mph 61% 0.00 in BKN
14:10 81.3 °F 66.1 °F 30.09 in NW 2.0 mph 2.0 mph 60% 0.00 in BKN
14:15 81.3 °F 67.0 °F 30.09 in WSW 2.0 mph 2.0 mph 62% 0.00 in BKN
14:20 81.0 °F 66.3 °F 30.08 in SW 2.0 mph 2.0 mph 61% 0.00 in BKN
14:25 80.9 °F 66.2 °F 30.08 in SW 2.0 mph 2.0 mph 61% 0.00 in BKN
14:30 81.2 °F 67.9 °F 30.08 in SW 2.0 mph 2.0 mph 64% 0.00 in BKN
14:40 81.6 °F 68.2 °F 30.08 in SW 2.0 mph 2.0 mph 64% 0.00 in BKN
14:45 81.7 °F 67.4 °F 30.08 in SW 2.0 mph 2.0 mph 62% 0.00 in BKN
14:50 81.5 °F 67.2 °F 30.08 in SW 2.0 mph 2.0 mph 62% 0.00 in BKN
14:55 81.4 °F 66.1 °F 30.07 in SW 2.0 mph 2.0 mph 60% 0.00 in BKN
15:00 81.2 °F 66.5 °F 30.07 in SW 2.0 mph 2.0 mph 61% 0.00 in BKN
15:10 80.7 °F 68.7 °F 30.07 in SW 2.0 mph 2.0 mph 67% 0.00 in BKN
15:15 80.8 °F 68.8 °F 30.07 in NW 3.0 mph 3.0 mph 67% 0.00 in BKN
15:20 81.0 °F 68.1 °F 30.07 in NNW 3.0 mph 3.0 mph 65% 0.00 in BKN
15:25 81.1 °F 65.9 °F 30.07 in NNW 3.0 mph 3.0 mph 60% 0.00 in BKN
15:30 81.0 °F 65.8 °F 30.06 in NNW 3.0 mph 3.0 mph 60% 0.00 in BKN
15:35 81.0 °F 65.8 °F 30.06 in NNW 3.0 mph 3.0 mph 60% 0.00 in BKN
15:40 80.9 °F 64.7 °F 30.06 in NNW 3.0 mph 3.0 mph 58% 0.00 in BKN
15:45 80.9 °F 64.3 °F 30.06 in NNW 3.0 mph 3.0 mph 57% 0.00 in BKN
15:50 81.0 °F 64.8 °F 30.06 in NNW 3.0 mph 3.0 mph 58% 0.00 in BKN
15:55 80.9 °F 63.7 °F 30.06 in NNW 3.0 mph 3.0 mph 56% 0.00 in BKN
16:00 80.9 °F 65.2 °F 30.06 in NNW 3.0 mph 3.0 mph 59% 0.00 in BKN
16:05 80.8 °F 65.2 °F 30.06 in NNW 3.0 mph 3.0 mph 59% 0.00 in BKN
16:10 80.8 °F 64.6 °F 30.06 in NNW 3.0 mph 3.0 mph 58% 0.00 in BKN
16:15 81.0 °F 65.8 °F 30.06 in WSW 3.0 mph 3.0 mph 60% 0.00 in BKN
16:20 81.4 °F 66.2 °F 30.06 in SSW 3.0 mph 3.0 mph 60% 0.00 in BKN
16:25 81.2 °F 65.5 °F 30.06 in SSW 3.0 mph 3.0 mph 59% 0.00 in BKN
16:30 81.1 °F 67.3 °F 30.05 in SSW 3.0 mph 3.0 mph 63% 0.00 in BKN
16:40 81.1 °F 66.4 °F 30.06 in SSW 3.0 mph 3.0 mph 61% 0.00 in BKN
16:45 80.7 °F 66.9 °F 30.06 in SSW 3.0 mph 3.0 mph 63% 0.00 in BKN
16:50 79.9 °F 67.1 °F 30.06 in SSW 3.0 mph 3.0 mph 65% 0.00 in BKN
16:55 79.4 °F 67.4 °F 30.06 in SSW 3.0 mph 3.0 mph 67% 0.00 in BKN
17:00 79.1 °F 67.6 °F 30.06 in SSW 3.0 mph 3.0 mph 68% 0.00 in BKN
17:05 79.2 °F 66.9 °F 30.06 in SSW 3.0 mph 3.0 mph 66% 0.00 in BKN
17:10 79.0 °F 66.6 °F 30.06 in SSW 3.0 mph 3.0 mph 66% 0.00 in BKN
17:15 78.5 °F 67.1 °F 30.05 in SSW 3.0 mph 3.0 mph 68% 0.00 in BKN
17:20 78.1 °F 67.5 °F 30.05 in SSW 3.0 mph 3.0 mph 70% 0.00 in BKN
17:25 77.8 °F 66.8 °F 30.05 in SSW 3.0 mph 3.0 mph 69% 0.00 in BKN
17:30 77.8 °F 66.8 °F 30.06 in SSW 3.0 mph 3.0 mph 69% 0.00 in BKN
17:40 77.5 °F 65.7 °F 30.06 in SSW 3.0 mph 3.0 mph 67% 0.00 in BKN
17:45 77.2 °F 65.8 °F 30.06 in SSW 3.0 mph 3.0 mph 68% 0.00 in BKN
17:50 76.9 °F 66.4 °F 30.06 in SSW 3.0 mph 3.0 mph 70% 0.00 in BKN
17:55 76.6 °F 66.1 °F 30.06 in SSW 3.0 mph 3.0 mph 70% 0.00 in BKN
18:00 76.5 °F 66.4 °F 30.06 in SSW 3.0 mph 3.0 mph 71% 0.00 in BKN
18:10 76.5 °F 66.4 °F 30.05 in SSW 3.0 mph 3.0 mph 71% 0.00 in BKN
18:15 76.5 °F 66.4 °F 30.05 in WNW 5.0 mph 5.0 mph 71% 0.00 in SCT
18:20 76.4 °F 66.7 °F 30.05 in NNW 5.0 mph 5.0 mph 72% 0.00 in SCT
18:25 76.4 °F 66.7 °F 30.05 in NNW 5.0 mph 5.0 mph 72% 0.00 in SCT
18:30 76.4 °F 66.7 °F 30.05 in NNW 5.0 mph 5.0 mph 72% 0.00 in SCT
18:40 76.1 °F 66.4 °F 30.05 in NNW 5.0 mph 5.0 mph 72% 0.00 in SCT
18:45 76.1 °F 66.8 °F 30.05 in NNW 5.0 mph 5.0 mph 73% 0.00 in SCT
18:50 75.9 °F 66.2 °F 30.06 in NNW 5.0 mph 5.0 mph 72% 0.00 in SCT
18:55 75.7 °F 66.8 °F 30.06 in NNW 5.0 mph 5.0 mph 74% 0.00 in SCT
19:00 75.5 °F 66.6 °F 30.06 in NNW 5.0 mph 5.0 mph 74% 0.00 in SCT
19:05 75.2 °F 66.3 °F 30.06 in NNW 5.0 mph 5.0 mph 74% 0.00 in SCT
19:10 75.0 °F 66.1 °F 30.05 in NNW 5.0 mph 5.0 mph 74% 0.00 in SCT
19:20 74.6 °F 66.1 °F 30.05 in North 3.0 mph 3.0 mph 75% 0.00 in SCT
19:25 74.3 °F 66.3 °F 30.05 in North 3.0 mph 3.0 mph 76% 0.00 in SCT
19:30 74.1 °F 66.5 °F 30.05 in North 3.0 mph 3.0 mph 77% 0.00 in SCT
19:40 73.8 °F 66.5 °F 30.06 in North 3.0 mph 3.0 mph 78% 0.00 in SCT
19:45 73.7 °F 66.1 °F 30.06 in North 3.0 mph 3.0 mph 77% 0.00 in SCT
19:50 73.6 °F 65.9 °F 30.06 in North 3.0 mph 3.0 mph 77% 0.00 in SCT
19:55 73.4 °F 66.1 °F 30.06 in North 3.0 mph 3.0 mph 78% 0.00 in SCT
20:00 73.2 °F 65.9 °F 30.06 in North 3.0 mph 3.0 mph 78% 0.00 in SCT
20:05 72.9 °F 66.0 °F 30.06 in North 3.0 mph 3.0 mph 79% 0.00 in SCT
20:10 72.7 °F 66.2 °F 30.07 in North 3.0 mph 3.0 mph 80% 0.00 in SCT
20:15 72.4 °F 65.9 °F 30.07 in North 3.0 mph 3.0 mph 80% 0.00 in SCT
20:20 72.2 °F 66.0 °F 30.07 in North 3.0 mph 3.0 mph 81% 0.00 in SCT
20:25 71.9 °F 65.8 °F 30.07 in North 3.0 mph 3.0 mph 81% 0.00 in SCT
20:30 71.7 °F 65.9 °F 30.07 in North 3.0 mph 3.0 mph 82% 0.00 in SCT
20:40 71.2 °F 65.8 °F 30.07 in North 3.0 mph 3.0 mph 83% 0.00 in SCT
20:45 71.1 °F 65.7 °F 30.08 in North 3.0 mph 3.0 mph 83% 0.00 in SCT
20:50 70.9 °F 65.8 °F 30.08 in North 3.0 mph 3.0 mph 84% 0.00 in SCT
20:55 70.7 °F 65.7 °F 30.08 in North 3.0 mph 3.0 mph 84% 0.00 in SCT
21:00 70.6 °F 65.5 °F 30.08 in North 3.0 mph 3.0 mph 84% 0.00 in SCT
21:05 70.4 °F 65.7 °F 30.08 in North 3.0 mph 3.0 mph 85% 0.00 in SCT
21:10 70.3 °F 65.6 °F 30.08 in North 3.0 mph 3.0 mph 85% 0.00 in SCT
21:15 70.2 °F 65.8 °F 30.08 in North 3.0 mph 3.0 mph 86% 0.00 in FEW
21:20 70.0 °F 65.6 °F 30.08 in North 3.0 mph 3.0 mph 86% 0.00 in FEW
21:25 69.8 °F 65.1 °F 30.08 in North 3.0 mph 3.0 mph 85% 0.00 in FEW
21:30 69.6 °F 65.2 °F 30.09 in North 3.0 mph 3.0 mph 86% 0.00 in FEW
21:40 69.4 °F 65.0 °F 30.09 in North 3.0 mph 3.0 mph 86% 0.00 in FEW
21:45 69.2 °F 64.9 °F 30.09 in North 3.0 mph 3.0 mph 86% 0.00 in FEW
21:50 69.1 °F 64.7 °F 30.09 in North 3.0 mph 3.0 mph 86% 0.00 in FEW
21:55 69.0 °F 64.6 °F 30.09 in North 3.0 mph 3.0 mph 86% 0.00 in FEW
22:00 69.0 °F 64.9 °F 30.09 in North 3.0 mph 3.0 mph 87% 0.00 in FEW
22:05 68.9 °F 64.9 °F 30.09 in North 3.0 mph 3.0 mph 87% 0.00 in FEW
22:10 68.8 °F 64.8 °F 30.09 in North 3.0 mph 3.0 mph 87% 0.00 in FEW
22:15 68.7 °F 64.6 °F 30.10 in North 3.0 mph 3.0 mph 87% 0.00 in FEW
22:20 68.6 °F 64.6 °F 30.10 in North 3.0 mph 3.0 mph 87% 0.00 in FEW
22:25 68.5 °F 64.5 °F 30.10 in North 3.0 mph 3.0 mph 87% 0.00 in FEW
22:30 68.5 °F 64.8 °F 30.10 in North 3.0 mph 3.0 mph 88% 0.00 in FEW
22:35 68.5 °F 64.8 °F 30.10 in North 3.0 mph 3.0 mph 88% 0.00 in FEW
22:40 68.4 °F 64.7 °F 30.10 in North 3.0 mph 3.0 mph 88% 0.00 in FEW
22:45 68.4 °F 64.7 °F 30.10 in North 3.0 mph 3.0 mph 88% 0.00 in FEW
22:50 68.4 °F 64.7 °F 30.10 in North 3.0 mph 3.0 mph 88% 0.00 in FEW
22:55 68.3 °F 64.6 °F 30.10 in North 3.0 mph 3.0 mph 88% 0.00 in FEW
23:00 68.2 °F 64.8 °F 30.10 in North 3.0 mph 3.0 mph 89% 0.00 in FEW
23:10 68.1 °F 64.7 °F 30.10 in North 3.0 mph 3.0 mph 89% 0.00 in FEW
23:15 68.1 °F 64.7 °F 30.10 in North 3.0 mph 3.0 mph 89% 0.00 in BKN
23:30 68.2 °F 64.8 °F 30.10 in North 3.0 mph 3.0 mph 89% 0.00 in BKN
23:40 68.1 °F 64.7 °F 30.10 in North 3.0 mph 3.0 mph 89% 0.00 in BKN
23:45 68.0 °F 64.6 °F 30.10 in North 3.0 mph 3.0 mph 89% 0.00 in BKN
23:50 67.9 °F 64.5 °F 30.10 in North 3.0 mph 3.0 mph 89% 0.00 in BKN
23:55 67.9 °F 64.9 °F 30.10 in North 3.0 mph 3.0 mph 90% 0.00 in BKN
Piedmont Bend
Compliments of Weather Underground - 4 mb